Time;durP1;ratioP1;P1;durP2;ratioP2;P2;SDS_P1;SDS_P2;PMS_P1;PMS_P2;Temp;Humidity;BMP_temperature;BMP_pressure;BME280_temperature;BME280_humidity;BME280_pressure;Samples;Min_cycle;Max_cycle;Signal;HPM_P1;HPM_P2
2021/04/15 00:01:59;;;;;;;19.13;10.75;;;2.10;91.40;;;;;;4979432;28;20426;-70
2021/04/15 00:04:24;;;;;;;18.70;10.18;;;2.00;91.50;;;;;;4990757;28;20209;-70
2021/04/15 00:06:50;;;;;;;20.00;10.10;;;2.10;91.70;;;;;;4973107;28;20194;-70
2021/04/15 00:09:19;;;;;;;18.73;10.40;;;2.00;91.70;;;;;;4990755;28;20190;-70
2021/04/15 00:11:46;;;;;;;19.67;9.68;;;2.00;91.90;;;;;;4975790;28;20497;-70
2021/04/15 00:14:15;;;;;;;17.38;9.70;;;2.00;92.00;;;;;;4971417;28;20238;-70
2021/04/15 00:16:41;;;;;;;22.08;11.32;;;2.00;91.90;;;;;;4986706;28;20249;-71
2021/04/15 00:19:08;;;;;;;23.33;10.30;;;1.90;92.00;;;;;;4972748;28;20305;-71
2021/04/15 00:21:34;;;;;;;19.80;10.60;;;1.90;92.20;;;;;;4989597;28;20182;-71
2021/04/15 00:24:00;;;;;;;21.27;11.07;;;1.90;92.30;;;;;;4972498;28;20854;-69
2021/04/15 00:26:27;;;;;;;17.87;9.93;;;1.80;92.50;;;;;;4990967;28;20322;-71
2021/04/15 00:28:55;;;;;;;22.35;10.30;;;1.80;92.60;;;;;;4973650;28;20430;-69
2021/04/15 00:31:22;;;;;;;19.17;9.63;;;1.60;92.70;;;;;;4990298;28;20248;-70
2021/04/15 00:33:48;;;;;;;21.90;10.85;;;1.60;92.70;;;;;;4997056;28;20218;-72
2021/04/15 00:36:14;;;;;;;19.13;9.83;;;1.70;92.80;;;;;;4999210;28;20182;-70
2021/04/15 00:38:41;;;;;;;21.40;11.13;;;1.70;92.80;;;;;;4987496;28;20418;-71
2021/04/15 00:41:09;;;;;;;17.67;10.07;;;1.70;92.50;;;;;;4984746;28;20482;-72
2021/04/15 00:43:38;;;;;;;21.98;11.02;;;1.70;92.30;;;;;;4970456;28;20213;-70
2021/04/15 00:46:37;;;;;;;20.75;11.23;;;1.70;92.20;;;;;;4953464;28;20195;-69
2021/04/15 00:49:03;;;;;;;22.75;10.70;;;1.60;92.30;;;;;;4973485;28;20194;-70
2021/04/15 00:51:42;;;;;;;16.60;9.53;;;1.60;92.40;;;;;;4979620;28;20191;-70
2021/04/15 00:54:36;;;;;;;21.10;12.15;;;1.50;92.60;;;;;;4973983;28;20520;-68
2021/04/15 00:57:04;;;;;;;24.05;10.93;;;1.50;92.70;;;;;;4989932;28;20186;-69
2021/04/15 00:59:30;;;;;;;23.38;12.20;;;1.40;92.70;;;;;;4989403;28;20255;-69
2021/04/15 01:01:58;;;;;;;19.27;10.93;;;1.40;92.90;;;;;;4988429;28;20250;-69
2021/04/15 01:04:24;;;;;;;26.25;12.38;;;1.50;93.00;;;;;;4978116;28;20203;-69
2021/04/15 01:06:50;;;;;;;21.55;10.52;;;1.50;92.90;;;;;;4989164;28;20283;-69
2021/04/15 01:09:16;;;;;;;23.80;10.70;;;1.50;92.90;;;;;;4989418;28;20190;-70
2021/04/15 01:12:08;;;;;;;22.30;11.25;;;1.40;92.90;;;;;;4990083;28;20186;-69
2021/04/15 02:18:50;;;;;;;25.88;14.07;;;1.00;93.90;;;;;;4989567;28;20984;-70
2021/04/15 02:21:25;;;;;;;25.10;13.32;;;1.00;94.00;;;;;;4992491;28;20210;-73
2021/04/15 02:23:58;;;;;;;25.00;13.20;;;0.90;94.00;;;;;;4992901;28;20694;-71
2021/04/15 02:26:33;;;;;;;29.00;13.05;;;1.00;94.20;;;;;;4992835;28;20230;-69
2021/04/15 02:29:05;;;;;;;26.65;14.18;;;1.00;94.10;;;;;;4975602;28;20193;-69
2021/04/15 02:31:46;;;;;;;34.97;13.63;;;1.00;94.00;;;;;;4993023;28;20214;-69
2021/04/15 02:34:42;;;;;;;27.55;14.90;;;1.00;94.00;;;;;;4992703;28;20264;-70
2021/04/15 02:37:16;;;;;;;28.67;14.30;;;1.00;93.90;;;;;;4973417;28;20689;-69
2021/04/15 02:39:56;;;;;;;21.45;13.00;;;1.00;93.90;;;;;;4992216;28;20591;-70
2021/04/15 02:42:26;;;;;;;23.20;13.23;;;1.00;93.90;;;;;;4992171;28;20692;-70
2021/04/15 02:44:59;;;;;;;29.10;14.02;;;1.00;93.80;;;;;;4980927;28;20281;-70
2021/04/15 02:47:33;;;;;;;31.30;15.60;;;0.90;93.80;;;;;;4992521;28;20190;-69
2021/04/15 02:50:03;;;;;;;32.80;16.15;;;0.90;93.80;;;;;;4992023;28;20265;-70
2021/04/15 02:52:33;;;;;;;28.67;15.60;;;0.90;93.80;;;;;;4992168;28;20191;-70
2021/04/15 02:55:04;;;;;;;36.67;15.85;;;0.90;93.80;;;;;;4992093;28;20237;-69
2021/04/15 02:57:39;;;;;;;34.47;15.80;;;0.90;93.80;;;;;;4974564;28;20193;-69
2021/04/15 03:00:18;;;;;;;29.60;15.75;;;0.90;93.80;;;;;;4991774;28;20182;-69
2021/04/15 03:02:48;;;;;;;33.85;14.57;;;0.80;94.00;;;;;;4985988;28;20182;-69
2021/04/15 03:05:23;;;;;;;35.55;16.15;;;0.80;94.20;;;;;;4975123;28;20262;-69
2021/04/15 03:07:52;;;;;;;35.30;17.02;;;0.80;94.20;;;;;;4992248;28;20190;-70
2021/04/15 03:10:24;;;;;;;37.97;17.50;;;0.80;94.30;;;;;;4986402;28;20257;-71
2021/04/15 03:13:03;;;;;;;34.47;15.82;;;0.70;94.40;;;;;;4973280;28;20766;-70
2021/04/15 03:15:32;;;;;;;33.85;16.52;;;0.70;94.60;;;;;;4973728;28;20194;-70
2021/04/15 03:18:03;;;;;;;34.15;15.60;;;0.70;94.50;;;;;;4970165;28;20190;-71
2021/04/15 03:20:54;;;;;;;33.72;16.13;;;0.80;94.50;;;;;;4992449;28;20213;-71
2021/04/15 03:23:53;;;;;;;28.92;15.00;;;0.70;94.50;;;;;;4992396;28;20604;-70
2021/04/15 03:26:24;;;;;;;33.53;15.40;;;0.70;94.50;;;;;;4992557;28;20186;-71
2021/04/15 03:29:36;;;;;;;34.95;16.60;;;0.60;94.60;;;;;;4991826;28;20274;-68
2021/04/15 03:32:43;;;;;;;28.85;15.43;;;0.60;94.90;;;;;;4981639;28;20210;-71
2021/04/15 03:35:15;;;;;;;31.55;16.70;;;0.60;94.90;;;;;;4963459;28;20230;-69
2021/04/15 03:37:49;;;;;;;31.77;15.73;;;0.50;95.10;;;;;;4991943;28;20257;-72
2021/04/15 03:40:22;;;;;;;30.20;14.95;;;0.60;95.20;;;;;;4974024;28;20186;-71
2021/04/15 03:42:54;;;;;;;32.53;16.27;;;0.60;95.10;;;;;;4991367;28;20189;-69
2021/04/15 03:45:38;;;;;;;27.83;14.93;;;0.60;95.20;;;;;;4991639;28;20673;-70
2021/04/15 03:48:12;;;;;;;25.23;14.45;;;0.50;95.20;;;;;;4980377;28;20722;-69
2021/04/15 03:50:54;;;;;;;31.48;15.63;;;0.50;95.10;;;;;;4987521;28;20182;-70
2021/04/15 03:53:55;;;;;;;30.92;17.13;;;0.50;95.20;;;;;;4983097;28;20202;-69
2021/04/15 03:56:40;;;;;;;33.00;15.43;;;0.50;95.20;;;;;;4901700;29;20212;-72
2021/04/15 03:59:09;;;;;;;30.75;15.30;;;0.40;95.20;;;;;;4925194;29;20201;-69
2021/04/15 04:01:49;;;;;;;28.35;15.40;;;0.50;95.30;;;;;;4919874;29;20271;-69
2021/04/15 04:04:32;;;;;;;29.25;14.90;;;0.50;95.20;;;;;;4912537;29;20309;-69
2021/04/15 04:07:03;;;;;;;33.42;15.10;;;0.40;95.10;;;;;;4928126;29;20196;-70
2021/04/15 04:09:41;;;;;;;26.23;13.30;;;0.50;95.30;;;;;;4931520;29;20339;-71
2021/04/15 04:12:11;;;;;;;26.13;14.13;;;0.50;95.10;;;;;;4913617;29;20196;-70
2021/04/15 04:14:48;;;;;;;23.13;12.32;;;0.50;95.00;;;;;;4912455;29;20216;-71
2021/04/15 04:17:22;;;;;;;21.33;12.90;;;0.40;95.00;;;;;;4911695;29;20181;-71
2021/04/15 04:19:52;;;;;;;26.27;14.07;;;0.40;95.00;;;;;;4913427;29;20197;-69
2021/04/15 04:22:51;;;;;;;25.80;13.48;;;0.40;95.10;;;;;;4930745;29;20170;-69
2021/04/15 04:25:46;;;;;;;27.50;13.55;;;0.40;95.10;;;;;;4923400;29;20200;-70
2021/04/15 04:28:28;;;;;;;28.95;14.32;;;0.40;95.20;;;;;;4915585;29;20200;-69
2021/04/15 04:31:05;;;;;;;29.98;14.90;;;0.40;95.20;;;;;;4933179;28;20590;-69
2021/04/15 04:33:44;;;;;;;21.13;12.73;;;0.40;95.20;;;;;;4989827;28;20241;-68
2021/04/15 04:36:12;;;;;;;23.08;11.68;;;0.40;95.00;;;;;;4990316;28;20544;-70
2021/04/15 04:38:39;;;;;;;24.05;13.27;;;0.40;95.00;;;;;;4990917;28;20186;-70
2021/04/15 04:41:12;;;;;;;27.80;13.93;;;0.40;95.10;;;;;;4969342;28;20229;-71
2021/04/15 04:43:40;;;;;;;34.33;14.85;;;0.40;95.10;;;;;;4983709;28;20301;-70
2021/04/15 04:46:32;;;;;;;30.95;14.88;;;0.40;95.10;;;;;;4978507;28;20186;-70
2021/04/15 04:49:06;;;;;;;23.83;14.15;;;0.40;95.10;;;;;;4990621;28;20245;-71
2021/04/15 04:51:52;;;;;;;30.13;13.80;;;0.40;95.10;;;;;;4992086;28;20201;-70
2021/04/15 04:54:21;;;;;;;27.08;12.63;;;0.40;95.00;;;;;;4991752;28;20218;-69
2021/04/15 04:56:53;;;;;;;25.42;13.63;;;0.40;95.00;;;;;;4992707;28;20182;-69
2021/04/15 04:59:29;;;;;;;25.30;13.27;;;0.40;95.10;;;;;;4992690;28;20645;-69
2021/04/15 05:01:55;;;;;;;24.20;13.60;;;0.40;95.20;;;;;;4993591;28;20224;-69
2021/04/15 05:04:23;;;;;;;27.35;13.00;;;0.50;95.10;;;;;;4993357;28;20202;-69
2021/04/15 05:06:50;;;;;;;26.13;13.32;;;0.50;95.00;;;;;;4992692;28;20190;-70
2021/04/15 05:09:27;;;;;;;25.50;13.35;;;0.40;94.90;;;;;;4990596;28;20603;-70
2021/04/15 05:11:54;;;;;;;24.33;13.55;;;0.50;94.90;;;;;;4990838;28;20190;-71
2021/04/15 05:14:25;;;;;;;24.73;12.93;;;0.50;94.80;;;;;;4989850;28;20218;-69
2021/04/15 05:17:06;;;;;;;19.05;10.77;;;0.60;94.50;;;;;;4990523;28;20606;-69
2021/04/15 05:19:35;;;;;;;16.20;10.20;;;0.60;94.40;;;;;;4977175;28;20542;-69
2021/04/15 05:22:04;;;;;;;16.35;9.68;;;0.60;94.30;;;;;;4971434;28;20175;-70
2021/04/15 05:24:47;;;;;;;17.83;10.30;;;0.70;94.00;;;;;;4983498;28;20241;-72
2021/04/15 05:27:15;;;;;;;16.10;9.75;;;0.90;93.20;;;;;;4990708;28;20179;-69
2021/04/15 05:29:43;;;;;;;17.38;9.25;;;0.90;92.70;;;;;;4990778;28;20248;-72
2021/04/15 05:32:14;;;;;;;19.35;8.82;;;1.00;92.20;;;;;;4990821;28;20230;-71
2021/04/15 05:34:56;;;;;;;18.33;8.82;;;1.10;91.30;;;;;;4990351;28;20206;-70
2021/04/15 05:37:25;;;;;;;13.85;7.90;;;1.10;90.80;;;;;;4990460;28;20237;-69
2021/04/15 05:39:54;;;;;;;15.10;8.50;;;1.10;90.70;;;;;;4989771;28;20271;-70
2021/04/15 05:42:25;;;;;;;21.00;9.50;;;1.20;90.70;;;;;;4977380;28;20176;-68
2021/04/15 05:44:58;;;;;;;15.93;8.60;;;1.30;90.40;;;;;;4989834;28;20234;-73
2021/04/15 05:47:28;;;;;;;17.17;9.55;;;1.30;90.30;;;;;;4972582;28;20194;-69
2021/04/15 05:50:05;;;;;;;14.60;8.32;;;1.30;90.30;;;;;;4990137;28;20232;-72
2021/04/15 05:52:40;;;;;;;15.35;8.60;;;1.40;90.10;;;;;;4974052;28;20194;-71
2021/04/15 05:55:09;;;;;;;13.57;7.43;;;1.50;89.50;;;;;;4993785;28;20700;-70
2021/04/15 05:57:38;;;;;;;12.75;8.25;;;1.60;88.60;;;;;;4971427;28;20288;-71
2021/04/15 06:00:23;;;;;;;16.98;9.60;;;1.70;88.00;;;;;;4992348;28;20669;-71
2021/04/15 06:02:53;;;;;;;11.70;7.45;;;1.70;87.40;;;;;;4988835;28;20201;-73
2021/04/15 06:05:38;;;;;;;14.75;8.50;;;1.60;87.10;;;;;;4983781;28;20241;-69
2021/04/15 06:08:09;;;;;;;16.70;7.53;;;1.60;87.10;;;;;;4975032;28;20561;-73
2021/04/15 06:10:38;;;;;;;12.75;7.82;;;1.70;86.30;;;;;;4986663;28;20206;-69
2021/04/15 06:13:22;;;;;;;14.13;7.25;;;1.60;86.00;;;;;;4961494;28;20227;-71
2021/04/15 06:15:51;;;;;;;12.35;7.72;;;1.60;86.30;;;;;;4993047;28;20206;-72
2021/04/15 06:18:38;;;;;;;14.70;7.97;;;1.70;86.80;;;;;;4984616;28;20237;-72
2021/04/15 06:21:29;;;;;;;14.07;7.10;;;1.80;87.00;;;;;;4973515;28;20183;-69
2021/04/15 06:24:22;;;;;;;12.68;7.15;;;2.00;86.90;;;;;;4970321;28;20215;-70
2021/04/15 06:26:51;;;;;;;12.57;7.22;;;2.20;86.00;;;;;;4962017;28;20184;-70
2021/04/15 06:29:32;;;;;;;18.38;7.93;;;2.20;84.40;;;;;;4982469;28;20179;-70
2021/04/15 06:32:01;;;;;;;13.80;7.97;;;2.20;83.70;;;;;;4993214;28;20595;-69
2021/04/15 06:34:28;;;;;;;15.18;7.50;;;2.30;83.60;;;;;;4970119;28;20214;-70
2021/04/15 06:36:59;;;;;;;15.88;8.38;;;2.30;84.00;;;;;;4978353;28;20183;-72
2021/04/15 06:39:38;;;;;;;13.95;8.40;;;2.40;84.10;;;;;;4985520;28;20744;-71
2021/04/15 06:42:25;;;;;;;14.27;7.57;;;2.40;83.30;;;;;;4988766;28;20269;-69
2021/04/15 06:45:52;;;;;;;13.60;7.78;;;2.50;83.30;;;;;;4978669;28;20207;-72
2021/04/15 06:48:36;;;;;;;14.45;7.72;;;2.60;82.50;;;;;;4895022;29;20330;-71
2021/04/15 06:51:37;;;;;;;14.82;7.68;;;2.60;82.50;;;;;;4896883;29;20329;-70
2021/04/15 06:54:35;;;;;;;12.80;7.47;;;2.70;81.90;;;;;;4912725;29;20732;-73
2021/04/15 06:57:24;;;;;;;12.60;6.50;;;2.70;81.40;;;;;;4914107;29;20280;-70
2021/04/15 07:00:06;;;;;;;9.70;6.82;;;2.80;80.60;;;;;;4914628;29;20197;-72
2021/04/15 07:03:07;;;;;;;15.07;7.75;;;2.80;79.50;;;;;;4913602;29;20683;-70
2021/04/15 07:05:53;;;;;;;15.60;7.72;;;2.70;79.70;;;;;;4896988;29;20204;-69
2021/04/15 07:08:57;;;;;;;15.63;8.35;;;2.80;79.70;;;;;;4913608;29;20201;-69
2021/04/15 07:11:42;;;;;;;19.60;8.07;;;2.90;79.60;;;;;;4906741;29;20209;-70
2021/04/15 07:14:42;;;;;;;14.48;7.53;;;3.00;79.60;;;;;;4913993;29;20213;-71
2021/04/15 07:17:29;;;;;;;15.30;6.93;;;3.10;79.30;;;;;;4911289;29;20197;-70
2021/04/15 07:20:08;;;;;;;10.50;6.20;;;3.20;78.60;;;;;;4989395;28;20449;-73
2021/04/15 07:23:02;;;;;;;14.23;7.72;;;3.30;77.10;;;;;;4963668;28;20434;-70
2021/04/15 07:25:55;;;;;;;10.45;5.63;;;3.30;77.00;;;;;;4974499;28;20219;-69
2021/04/15 07:28:43;;;;;;;9.77;6.53;;;3.40;75.90;;;;;;4992135;28;20344;-71
2021/04/15 07:31:46;;;;;;;11.57;6.22;;;3.50;75.50;;;;;;4975246;28;20433;-72
2021/04/15 07:34:21;;;;;;;11.73;6.10;;;3.60;74.90;;;;;;4979390;28;20210;-70
2021/04/15 07:37:20;;;;;;;8.97;6.07;;;3.70;74.20;;;;;;4992834;28;20182;-71
2021/04/15 07:39:52;;;;;;;14.70;6.67;;;3.70;74.50;;;;;;4992780;28;20469;-69
2021/04/15 07:42:42;;;;;;;11.50;6.47;;;3.70;75.10;;;;;;4974609;28;20426;-72
2021/04/15 07:45:22;;;;;;;13.07;7.57;;;3.90;74.50;;;;;;4993686;28;20776;-71
2021/04/15 07:48:08;;;;;;;13.83;7.83;;;3.90;74.00;;;;;;4989259;28;20429;-72
2021/04/15 07:51:12;;;;;;;9.33;6.13;;;4.00;73.90;;;;;;4971668;28;20484;-70
2021/04/15 07:54:21;;;;;;;13.47;7.13;;;4.00;72.60;;;;;;4993899;28;20441;-72
2021/04/15 07:57:14;;;;;;;13.10;8.00;;;4.10;72.60;;;;;;4992542;28;20822;-71
2021/04/15 08:00:10;;;;;;;16.57;7.63;;;4.20;73.00;;;;;;4993951;28;20861;-72
2021/04/15 08:03:13;;;;;;;14.23;6.87;;;4.30;72.00;;;;;;4979962;28;20507;-72
2021/04/15 08:06:02;;;;;;;15.20;6.93;;;4.30;71.60;;;;;;4987755;28;20418;-70
2021/04/15 08:08:39;;;;;;;11.67;7.13;;;4.30;71.30;;;;;;4969478;28;20433;-74
2021/04/15 08:11:08;;;;;;;12.10;8.10;;;4.40;70.80;;;;;;4964989;28;20434;-70
2021/04/15 08:14:01;;;;;;;16.20;6.13;;;4.40;70.70;;;;;;4977532;28;20450;-71
2021/04/15 08:17:04;;;;;;;11.43;6.97;;;4.40;70.80;;;;;;4993373;28;20436;-72
2021/04/15 08:19:36;;;;;;;15.50;7.63;;;4.60;70.40;;;;;;4986134;28;20496;-69
2021/04/15 08:22:13;;;;;;;10.10;6.20;;;4.60;69.90;;;;;;4992082;28;20414;-71
2021/04/15 08:24:47;;;;;;;15.53;7.20;;;4.70;69.90;;;;;;4979978;28;20457;-70
2021/04/15 08:27:31;;;;;;;12.53;7.30;;;4.80;69.90;;;;;;4993933;28;20424;-72
2021/04/15 08:30:02;;;;;;;11.90;7.57;;;4.90;69.70;;;;;;4980897;28;20421;-71
2021/04/15 08:32:52;;;;;;;15.00;7.40;;;4.90;69.10;;;;;;4975431;28;20429;-74
2021/04/15 08:35:56;;;;;;;12.50;7.70;;;5.00;68.90;;;;;;4993238;28;20592;-71
2021/04/15 08:38:44;;;;;;;12.30;7.00;;;5.10;68.80;;;;;;4965672;28;20437;-69
2021/04/15 08:41:28;;;;;;;12.40;6.60;;;5.20;67.00;;;;;;4988216;28;20442;-71
2021/04/15 08:44:31;;;;;;;11.40;7.07;;;5.20;66.70;;;;;;4986909;28;20438;-71
2021/04/15 08:47:34;;;;;;;12.87;6.80;;;5.20;67.50;;;;;;4992382;28;20432;-73
2021/04/15 08:50:13;;;;;;;12.43;6.20;;;5.30;66.10;;;;;;4991763;28;20417;-70
2021/04/15 08:52:53;;;;;;;15.00;7.10;;;5.40;65.80;;;;;;4978804;28;20448;-72
2021/04/15 08:55:34;;;;;;;13.93;6.53;;;5.50;65.70;;;;;;4991563;28;20552;-71
2021/04/15 08:58:35;;;;;;;12.20;6.73;;;5.60;65.80;;;;;;4991583;28;20508;-70
2021/04/15 09:01:09;;;;;;;12.10;6.73;;;5.60;62.50;;;;;;4979276;28;20421;-71
2021/04/15 09:04:00;;;;;;;11.40;7.03;;;5.60;62.20;;;;;;4985295;28;20451;-70
2021/04/15 09:07:04;;;;;;;14.70;8.07;;;5.70;63.40;;;;;;4983659;28;20988;-73
2021/04/15 09:10:00;;;;;;;16.10;7.50;;;5.80;64.40;;;;;;4957315;28;20868;-71
2021/04/15 09:12:32;;;;;;;15.50;7.17;;;5.90;64.20;;;;;;4992433;28;20497;-70
2021/04/15 09:15:20;;;;;;;12.97;7.40;;;6.00;63.10;;;;;;4992422;28;20465;-69
2021/04/15 09:17:53;;;;;;;10.77;5.67;;;6.10;61.90;;;;;;4992434;28;20508;-73
2021/04/15 09:20:22;;;;;;;10.10;5.40;;;6.00;59.50;;;;;;4992208;28;20432;-69
2021/04/15 09:23:13;;;;;;;12.17;6.20;;;5.90;59.20;;;;;;4992090;28;20633;-70
2021/04/15 09:25:45;;;;;;;11.17;6.43;;;6.10;59.10;;;;;;4992110;28;20450;-69
2021/04/15 09:28:35;;;;;;;12.87;6.27;;;6.00;59.90;;;;;;4994614;28;20512;-71
2021/04/15 09:31:05;;;;;;;11.70;6.10;;;6.20;60.30;;;;;;4995906;28;20456;-70
2021/04/15 09:33:58;;;;;;;14.10;6.93;;;6.40;60.00;;;;;;4995633;28;20457;-70
2021/04/15 09:36:33;;;;;;;10.80;5.97;;;6.40;59.70;;;;;;4995939;28;20422;-70
2021/04/15 09:39:17;;;;;;;12.60;6.13;;;6.50;60.10;;;;;;4994918;28;20420;-72
2021/04/15 09:42:16;;;;;;;9.53;5.13;;;6.70;58.40;;;;;;4985048;28;20508;-71
2021/04/15 09:45:19;;;;;;;10.10;5.80;;;6.80;57.60;;;;;;4976480;28;20501;-69
2021/04/15 09:48:08;;;;;;;7.97;4.47;;;7.00;57.30;;;;;;4983193;28;20413;-72
2021/04/15 09:50:48;;;;;;;7.27;4.30;;;7.30;55.20;;;;;;4965478;28;20444;-69
2021/04/15 09:53:39;;;;;;;7.37;4.63;;;7.10;52.80;;;;;;4994194;28;20433;-72
2021/04/15 09:56:41;;;;;;;11.17;4.30;;;7.10;53.80;;;;;;4977008;28;20461;-71
2021/04/15 09:59:22;;;;;;;12.83;4.43;;;7.20;53.80;;;;;;4994537;28;20420;-71
2021/04/15 10:01:53;;;;;;;6.90;4.03;;;7.30;52.00;;;;;;4995042;28;20507;-72
2021/04/15 10:04:30;;;;;;;7.10;4.10;;;7.40;50.90;;;;;;4969693;28;20458;-72
2021/04/15 10:07:22;;;;;;;5.67;3.70;;;7.40;50.90;;;;;;4975184;28;20490;-71
2021/04/15 10:10:11;;;;;;;9.13;4.13;;;7.30;51.30;;;;;;4978551;28;20437;-70
2021/04/15 10:12:51;;;;;;;9.73;4.60;;;7.40;51.00;;;;;;4975224;28;20418;-69
2021/04/15 10:15:41;;;;;;;6.87;3.30;;;7.60;49.00;;;;;;4992286;28;20507;-72
2021/04/15 10:18:35;;;;;;;7.40;3.70;;;7.90;48.70;;;;;;4979363;28;20427;-71
2021/04/15 10:21:00;;;;;;;10.20;4.03;;;7.80;49.70;;;;;;4986566;28;20871;-69
2021/04/15 10:23:41;;;;;;;9.43;4.00;;;7.60;50.90;;;;;;4980024;28;20461;-70
2021/04/15 10:26:13;;;;;;;7.10;4.60;;;7.50;50.90;;;;;;4976950;28;20194;-70
2021/04/15 10:29:07;;;;;;;8.30;4.77;;;7.70;54.10;;;;;;4977396;28;20429;-73
2021/04/15 10:31:51;;;;;;;7.60;4.60;;;7.60;55.70;;;;;;4973521;28;20433;-69
2021/04/15 10:34:29;;;;;;;13.37;5.13;;;7.30;57.00;;;;;;4992835;28;20468;-72
2021/04/15 10:37:01;;;;;;;8.80;4.40;;;7.40;58.00;;;;;;4993380;28;20421;-72
2021/04/15 10:39:53;;;;;;;11.47;5.27;;;7.20;57.40;;;;;;4988707;28;20453;-72
2021/04/15 10:42:44;;;;;;;11.03;5.47;;;7.10;57.70;;;;;;4987418;28;20424;-71
2021/04/15 10:45:30;;;;;;;8.83;4.70;;;7.30;58.20;;;;;;4987095;28;20421;-71
2021/04/15 10:48:07;;;;;;;8.83;4.03;;;7.30;57.80;;;;;;4982776;28;20446;-73
2021/04/15 10:50:57;;;;;;;9.07;4.93;;;7.20;56.10;;;;;;4976566;28;20441;-73
2021/04/15 10:53:50;;;;;;;7.43;4.20;;;7.40;55.60;;;;;;4976898;28;20441;-71
2021/04/15 10:56:27;;;;;;;9.53;4.77;;;7.70;54.00;;;;;;4987051;28;20473;-70
2021/04/15 10:58:54;;;;;;;8.87;4.27;;;7.60;52.10;;;;;;4993125;28;20426;-72
2021/04/15 11:01:43;;;;;;;5.63;4.43;;;7.80;52.10;;;;;;4992365;28;20418;-71
2021/04/15 11:04:08;;;;;;;13.93;4.97;;;8.00;51.40;;;;;;4974410;28;20450;-70
2021/04/15 11:06:40;;;;;;;8.20;4.63;;;8.00;49.80;;;;;;4991576;28;20565;-70
2021/04/15 11:09:28;;;;;;;11.33;4.37;;;8.00;50.60;;;;;;4961259;28;20187;-71
2021/04/15 11:12:01;;;;;;;5.43;3.83;;;8.20;49.70;;;;;;4991368;28;20417;-71
2021/04/15 11:14:35;;;;;;;6.93;4.00;;;8.50;49.40;;;;;;4991523;28;20560;-71
2021/04/15 11:17:13;;;;;;;8.67;4.60;;;8.60;49.30;;;;;;4991620;28;20421;-72
2021/04/15 11:19:39;;;;;;;6.23;3.97;;;8.50;48.10;;;;;;4974300;28;21006;-71
2021/04/15 11:22:27;;;;;;;8.23;3.67;;;8.40;48.70;;;;;;4991499;28;20428;-70
2021/04/15 11:25:18;;;;;;;4.70;3.07;;;8.30;49.10;;;;;;4991596;28;20452;-71
2021/04/15 11:27:44;;;;;;;6.83;3.20;;;8.20;49.30;;;;;;4993243;28;20421;-72
2021/04/15 11:30:29;;;;;;;5.37;3.67;;;8.00;48.60;;;;;;4996042;28;20524;-73
2021/04/15 11:32:54;;;;;;;6.70;3.50;;;7.60;48.30;;;;;;4992305;28;20681;-70
2021/04/15 11:35:22;;;;;;;5.53;3.00;;;7.50;49.10;;;;;;4972723;28;20473;-72
2021/04/15 11:37:51;;;;;;;7.77;3.87;;;7.50;50.90;;;;;;4970987;28;20194;-72
2021/04/15 11:40:37;;;;;;;8.23;4.20;;;7.60;51.30;;;;;;4963087;28;20441;-72
2021/04/15 11:43:29;;;;;;;8.53;3.87;;;7.70;50.50;;;;;;4986445;28;20875;-71
2021/04/15 11:46:10;;;;;;;5.30;3.37;;;7.60;51.40;;;;;;4980924;28;20781;-72
2021/04/15 11:48:36;;;;;;;7.90;4.33;;;8.00;50.50;;;;;;4991145;28;20429;-70
2021/04/15 11:51:14;;;;;;;6.60;4.10;;;8.30;49.70;;;;;;4991122;28;20508;-69
2021/04/15 11:53:53;;;;;;;7.83;4.27;;;8.60;49.10;;;;;;4990902;28;20453;-71
2021/04/15 11:56:25;;;;;;;7.33;4.13;;;8.40;48.70;;;;;;4985931;28;20465;-72
2021/04/15 11:58:53;;;;;;;6.43;4.20;;;8.60;48.20;;;;;;4991886;28;20437;-73
2021/04/15 12:01:31;;;;;;;5.13;3.53;;;9.00;47.70;;;;;;4983020;28;20455;-71
2021/04/15 12:04:00;;;;;;;7.37;4.17;;;9.50;47.70;;;;;;4989278;28;20441;-73
2021/04/15 12:06:40;;;;;;;10.63;3.67;;;9.50;45.40;;;;;;4974004;28;20897;-70
2021/04/15 12:09:11;;;;;;;5.37;3.90;;;9.50;46.20;;;;;;4961219;28;20449;-71
2021/04/15 12:11:56;;;;;;;6.00;3.80;;;9.50;43.70;;;;;;4992341;28;20528;-71
2021/04/15 12:14:23;;;;;;;5.10;3.17;;;9.50;42.60;;;;;;4992098;28;20465;-70
2021/04/15 12:16:55;;;;;;;4.37;2.83;;;9.50;42.70;;;;;;4956917;28;20554;-71
2021/04/15 12:19:32;;;;;;;4.20;3.17;;;9.70;41.10;;;;;;4971108;28;20461;-70
2021/04/15 12:22:24;;;;;;;4.40;3.10;;;9.50;39.90;;;;;;4977873;28;20500;-73
2021/04/15 12:24:58;;;;;;;6.03;3.33;;;9.60;41.20;;;;;;4977248;28;20465;-71
2021/04/15 12:27:30;;;;;;;5.90;3.80;;;10.10;39.90;;;;;;4990962;28;20418;-73
2021/04/15 12:30:09;;;;;;;6.90;4.20;;;9.90;40.70;;;;;;4976613;28;20579;-70
2021/04/15 12:33:26;;;;;;;7.60;3.70;;;10.30;41.00;;;;;;4976881;28;20439;-69
2021/04/15 12:36:01;;;;;;;5.50;3.67;;;10.50;41.00;;;;;;4897489;29;20494;-72
2021/04/15 12:38:37;;;;;;;7.30;4.00;;;10.70;39.90;;;;;;4910361;29;20500;-72
2021/04/15 12:41:08;;;;;;;5.87;3.27;;;10.20;39.60;;;;;;4907830;29;21212;-72
2021/04/15 12:43:41;;;;;;;6.67;3.47;;;10.20;39.60;;;;;;4899450;29;20474;-70
2021/04/15 12:46:13;;;;;;;6.57;3.90;;;10.40;38.80;;;;;;4909573;29;20771;-71
2021/04/15 12:48:50;;;;;;;4.43;3.20;;;10.40;38.80;;;;;;4910379;29;20439;-71
2021/04/15 12:51:21;;;;;;;6.13;3.80;;;10.50;37.50;;;;;;4910690;29;20428;-71
2021/04/15 12:53:48;;;;;;;5.67;3.67;;;11.10;38.00;;;;;;4909100;29;20492;-70
2021/04/15 12:56:21;;;;;;;8.53;4.30;;;11.30;38.80;;;;;;4909919;29;20572;-69
2021/04/15 12:58:48;;;;;;;8.00;3.83;;;11.60;38.30;;;;;;4910049;29;20524;-72
2021/04/15 13:01:15;;;;;;;5.03;3.40;;;11.70;38.20;;;;;;4910044;29;20445;-73
2021/04/15 13:03:46;;;;;;;5.20;4.00;;;12.10;37.50;;;;;;4909238;29;20535;-70
2021/04/15 13:06:17;;;;;;;5.80;4.23;;;11.80;37.40;;;;;;4935096;28;20544;-69
2021/04/15 13:08:47;;;;;;;5.37;3.60;;;11.10;38.60;;;;;;4986884;28;20480;-71
2021/04/15 13:11:16;;;;;;;5.17;3.70;;;10.50;39.90;;;;;;4978086;28;20944;-73
2021/04/15 13:14:05;;;;;;;6.83;3.67;;;10.20;41.10;;;;;;4982530;28;20465;-70
2021/04/15 13:16:34;;;;;;;6.03;3.90;;;10.10;40.70;;;;;;4972079;28;20888;-70
2021/04/15 13:19:18;;;;;;;6.07;3.90;;;9.70;41.60;;;;;;4981379;28;20445;-70
2021/04/15 13:21:59;;;;;;;5.40;3.57;;;9.10;47.80;;;;;;4957600;28;20425;-70
2021/04/15 13:24:46;;;;;;;7.83;4.50;;;8.60;50.70;;;;;;4987905;28;20441;-70
2021/04/15 13:27:37;;;;;;;6.00;4.17;;;8.60;51.40;;;;;;4972225;28;20433;-70
2021/04/15 13:30:22;;;;;;;7.77;4.27;;;8.70;50.20;;;;;;4986821;28;20426;-69
2021/04/15 13:33:09;;;;;;;6.90;3.30;;;8.80;50.60;;;;;;4969897;28;20442;-71
2021/04/15 13:35:34;;;;;;;4.90;3.40;;;8.80;50.20;;;;;;4983811;28;20595;-74
2021/04/15 13:38:00;;;;;;;6.00;3.77;;;8.60;51.40;;;;;;4989889;28;20941;-70
2021/04/15 13:40:51;;;;;;;7.93;3.60;;;9.00;51.30;;;;;;4972865;28;20237;-70
2021/04/15 13:43:33;;;;;;;7.03;3.63;;;9.20;48.50;;;;;;4980365;28;20593;-69
2021/04/15 13:48:54;;;;;;;7.60;3.97;;;9.40;46.10;;;;;;4989538;28;20432;-72
2021/04/15 13:51:35;;;;;;;7.00;3.50;;;9.70;45.40;;;;;;4979471;28;20496;-70
2021/04/15 13:54:04;;;;;;;6.93;3.57;;;9.90;46.10;;;;;;4990289;28;20818;-73
2021/04/15 13:56:38;;;;;;;7.53;3.57;;;10.60;43.40;;;;;;4990988;28;20955;-70
2021/04/15 13:59:35;;;;;;;9.03;4.37;;;10.30;42.70;;;;;;4990559;28;20835;-71
2021/04/15 14:02:07;;;;;;;7.67;4.07;;;10.50;41.50;;;;;;4991242;28;20418;-71
2021/04/15 14:07:32;;;;;;;10.10;5.57;;;10.30;41.40;;;;;;4990933;28;20910;-71
2021/04/15 14:10:17;;;;;;;6.23;3.60;;;9.30;43.90;;;;;;4973672;28;20436;-72
2021/04/15 14:12:54;;;;;;;5.70;3.70;;;9.40;44.90;;;;;;4997950;28;20421;-70
2021/04/15 14:15:33;;;;;;;5.23;3.50;;;9.50;44.20;;;;;;5002273;28;20452;-70
2021/04/15 14:18:07;;;;;;;6.93;3.77;;;9.20;44.20;;;;;;5000144;28;20425;-71
2021/04/15 14:20:42;;;;;;;7.13;4.00;;;9.00;45.30;;;;;;4998957;28;20423;-71
2021/04/15 14:23:23;;;;;;;8.30;4.37;;;9.10;45.00;;;;;;4999157;28;20498;-72
2021/04/15 14:25:52;;;;;;;6.67;3.90;;;9.00;43.50;;;;;;4989229;28;20434;-69
2021/04/15 14:28:27;;;;;;;6.20;3.73;;;8.90;44.10;;;;;;4990199;28;20489;-73
2021/04/15 14:30:53;;;;;;;7.20;4.13;;;9.30;43.80;;;;;;4974061;28;20529;-73
2021/04/15 14:33:23;;;;;;;7.43;4.73;;;9.70;42.30;;;;;;4973937;28;20454;-73
2021/04/15 14:35:50;;;;;;;7.30;4.23;;;10.60;43.00;;;;;;4955192;28;20478;-72
2021/04/15 14:38:40;;;;;;;8.40;4.90;;;10.90;43.40;;;;;;4955393;28;20799;-71
2021/04/15 14:41:07;;;;;;;10.10;4.63;;;11.30;42.60;;;;;;4978595;28;20438;-72
2021/04/15 14:43:35;;;;;;;10.33;5.10;;;11.70;41.50;;;;;;4997056;28;20612;-70
2021/04/15 14:46:18;;;;;;;7.33;4.50;;;11.60;41.10;;;;;;4997572;28;20430;-69
2021/04/15 14:48:44;;;;;;;8.77;4.60;;;11.00;42.40;;;;;;4993066;28;20451;-72
2021/04/15 14:51:12;;;;;;;11.33;4.87;;;10.50;43.20;;;;;;4993936;28;20460;-72
2021/04/15 14:53:40;;;;;;;10.90;4.47;;;10.10;43.80;;;;;;4977700;28;20449;-73
2021/04/15 14:56:27;;;;;;;9.23;5.37;;;10.00;43.50;;;;;;4982229;28;20481;-71